sensor_id;sensor_type;location;lat;lon;timestamp;temperature;humidity
9861;DHT22;4969;52.304;4.968;2023-04-03T00:01:58;9.96;59.98
9861;DHT22;4969;52.304;4.968;2023-04-03T00:04:25;9.37;58.27
9861;DHT22;4969;52.304;4.968;2023-04-03T00:06:53;10.00;54.52
9861;DHT22;4969;52.304;4.968;2023-04-03T00:09:19;9.86;67.82
9861;DHT22;4969;52.304;4.968;2023-04-03T00:11:46;11.58;66.51
9861;DHT22;4969;52.304;4.968;2023-04-03T00:14:12;11.43;70.98
9861;DHT22;4969;52.304;4.968;2023-04-03T00:16:39;12.85;68.49
9861;DHT22;4969;52.304;4.968;2023-04-03T00:19:06;11.46;51.81
9861;DHT22;4969;52.304;4.968;2023-04-03T00:21:32;11.68;62.78
9861;DHT22;4969;52.304;4.968;2023-04-03T00:24:00;11.04;60.48
9861;DHT22;4969;52.304;4.968;2023-04-03T00:26:27;10.82;64.33
9861;DHT22;4969;52.304;4.968;2023-04-03T00:28:53;10.20;51.57
9861;DHT22;4969;52.304;4.968;2023-04-03T00:31:20;11.12;63.74
9861;DHT22;4969;52.304;4.968;2023-04-03T00:33:46;11.41;57.20
9861;DHT22;4969;52.304;4.968;2023-04-03T00:36:13;12.97;70.78
9861;DHT22;4969;52.304;4.968;2023-04-03T00:38:40;11.24;54.19
9861;DHT22;4969;52.304;4.968;2023-04-03T00:41:08;12.45;66.48
9861;DHT22;4969;52.304;4.968;2023-04-03T00:43:34;11.89;69.03
9861;DHT22;4969;52.304;4.968;2023-04-03T00:46:01;11.76;56.16
9861;DHT22;4969;52.304;4.968;2023-04-03T00:48:31;10.97;53.93
9861;DHT22;4969;52.304;4.968;2023-04-03T00:50:58;11.44;59.28
9861;DHT22;4969;52.304;4.968;2023-04-03T00:53:27;12.13;71.31
9861;DHT22;4969;52.304;4.968;2023-04-03T00:55:56;12.41;58.69
9861;DHT22;4969;52.304;4.968;2023-04-03T00:58:28;11.64;65.00
9861;DHT22;4969;52.304;4.968;2023-04-03T01:00:58;13.44;67.29
9861;DHT22;4969;52.304;4.968;2023-04-03T01:03:26;12.41;60.39
9861;DHT22;4969;52.304;4.968;2023-04-03T01:05:53;11.40;57.99
9861;DHT22;4969;52.304;4.968;2023-04-03T01:08:20;11.00;61.49
9861;DHT22;4969;52.304;4.968;2023-04-03T01:10:46;10.92;58.74
9861;DHT22;4969;52.304;4.968;2023-04-03T01:13:26;11.47;59.72
9861;DHT22;4969;52.304;4.968;2023-04-03T01:15:53;9.79;54.02
9861;DHT22;4969;52.304;4.968;2023-04-03T01:18:21;9.57;63.42
9861;DHT22;4969;52.304;4.968;2023-04-03T01:21:25;9.95;53.06
9861;DHT22;4969;52.304;4.968;2023-04-03T01:24:00;9.89;77.69
9861;DHT22;4969;52.304;4.968;2023-04-03T01:26:31;10.49;59.59
9861;DHT22;4969;52.304;4.968;2023-04-03T01:28:59;10.60;59.30
9861;DHT22;4969;52.304;4.968;2023-04-03T01:31:28;10.24;59.88
9861;DHT22;4969;52.304;4.968;2023-04-03T01:33:59;10.96;66.19
9861;DHT22;4969;52.304;4.968;2023-04-03T01:36:28;10.65;71.02
9861;DHT22;4969;52.304;4.968;2023-04-03T01:38:56;9.66;58.27
9861;DHT22;4969;52.304;4.968;2023-04-03T01:41:23;9.09;59.13
9861;DHT22;4969;52.304;4.968;2023-04-03T01:43:51;8.85;60.92
9861;DHT22;4969;52.304;4.968;2023-04-03T01:46:18;9.64;65.06
9861;DHT22;4969;52.304;4.968;2023-04-03T01:48:45;8.57;57.62
9861;DHT22;4969;52.304;4.968;2023-04-03T01:51:13;8.45;58.43
9861;DHT22;4969;52.304;4.968;2023-04-03T01:53:40;7.82;60.27
9861;DHT22;4969;52.304;4.968;2023-04-03T01:56:07;7.82;65.64
9861;DHT22;4969;52.304;4.968;2023-04-03T01:58:34;7.82;62.31
9861;DHT22;4969;52.304;4.968;2023-04-03T02:01:00;7.94;59.42
9861;DHT22;4969;52.304;4.968;2023-04-03T02:03:27;7.41;59.41
9861;DHT22;4969;52.304;4.968;2023-04-03T02:05:54;7.51;60.18
9861;DHT22;4969;52.304;4.968;2023-04-03T02:08:22;7.62;62.38
9861;DHT22;4969;52.304;4.968;2023-04-03T02:10:49;7.27;66.05
9861;DHT22;4969;52.304;4.968;2023-04-03T02:13:16;7.47;64.28
9861;DHT22;4969;52.304;4.968;2023-04-03T02:15:43;7.06;61.57
9861;DHT22;4969;52.304;4.968;2023-04-03T02:18:11;7.16;63.81
9861;DHT22;4969;52.304;4.968;2023-04-03T02:20:37;7.68;71.33
9861;DHT22;4969;52.304;4.968;2023-04-03T02:23:04;8.79;67.04
9861;DHT22;4969;52.304;4.968;2023-04-03T02:25:32;10.06;67.64
9861;DHT22;4969;52.304;4.968;2023-04-03T02:27:59;9.38;68.35
9861;DHT22;4969;52.304;4.968;2023-04-03T02:30:26;8.79;61.88
9861;DHT22;4969;52.304;4.968;2023-04-03T02:32:53;8.34;66.13
9861;DHT22;4969;52.304;4.968;2023-04-03T02:35:19;7.61;63.61
9861;DHT22;4969;52.304;4.968;2023-04-03T02:37:46;8.55;69.90
9861;DHT22;4969;52.304;4.968;2023-04-03T02:40:12;8.09;65.12
9861;DHT22;4969;52.304;4.968;2023-04-03T02:42:40;8.13;65.52
9861;DHT22;4969;52.304;4.968;2023-04-03T02:45:07;7.85;70.74
9861;DHT22;4969;52.304;4.968;2023-04-03T02:47:34;8.95;72.50
9861;DHT22;4969;52.304;4.968;2023-04-03T02:50:00;8.36;69.32
9861;DHT22;4969;52.304;4.968;2023-04-03T02:52:27;8.99;72.65
9861;DHT22;4969;52.304;4.968;2023-04-03T02:54:53;8.15;61.76
9861;DHT22;4969;52.304;4.968;2023-04-03T02:57:20;7.20;63.62
9861;DHT22;4969;52.304;4.968;2023-04-03T02:59:48;7.16;70.29
9861;DHT22;4969;52.304;4.968;2023-04-03T03:02:14;7.16;70.47
9861;DHT22;4969;52.304;4.968;2023-04-03T03:04:41;6.54;66.40
9861;DHT22;4969;52.304;4.968;2023-04-03T03:07:08;7.31;69.63
9861;DHT22;4969;52.304;4.968;2023-04-03T03:09:34;7.16;63.78
9861;DHT22;4969;52.304;4.968;2023-04-03T03:12:01;6.89;64.25
9861;DHT22;4969;52.304;4.968;2023-04-03T03:14:27;7.16;65.11
9861;DHT22;4969;52.304;4.968;2023-04-03T03:16:55;7.06;64.53
9861;DHT22;4969;52.304;4.968;2023-04-03T03:19:22;7.81;73.38
9861;DHT22;4969;52.304;4.968;2023-04-03T03:21:48;7.88;66.65
9861;DHT22;4969;52.304;4.968;2023-04-03T03:24:15;8.24;77.24
9861;DHT22;4969;52.304;4.968;2023-04-03T03:26:42;8.52;67.45
9861;DHT22;4969;52.304;4.968;2023-04-03T03:29:09;9.06;68.90
9861;DHT22;4969;52.304;4.968;2023-04-03T03:31:35;8.79;70.36
9861;DHT22;4969;52.304;4.968;2023-04-03T03:34:03;8.27;64.62
9861;DHT22;4969;52.304;4.968;2023-04-03T03:36:30;7.62;66.05
9861;DHT22;4969;52.304;4.968;2023-04-03T03:38:56;8.65;65.53
9861;DHT22;4969;52.304;4.968;2023-04-03T03:41:23;7.71;66.73
9861;DHT22;4969;52.304;4.968;2023-04-03T03:43:50;8.41;70.72
9861;DHT22;4969;52.304;4.968;2023-04-03T03:46:16;8.68;70.56
9861;DHT22;4969;52.304;4.968;2023-04-03T03:48:43;9.36;72.96
9861;DHT22;4969;52.304;4.968;2023-04-03T03:51:11;10.20;72.39
9861;DHT22;4969;52.304;4.968;2023-04-03T03:53:37;10.28;76.81
9861;DHT22;4969;52.304;4.968;2023-04-03T03:56:04;10.95;67.43
9861;DHT22;4969;52.304;4.968;2023-04-03T03:58:31;12.09;72.70
9861;DHT22;4969;52.304;4.968;2023-04-03T04:01:00;11.41;67.01
9861;DHT22;4969;52.304;4.968;2023-04-03T04:03:27;11.67;70.96
9861;DHT22;4969;52.304;4.968;2023-04-03T04:05:53;11.36;65.21
9861;DHT22;4969;52.304;4.968;2023-04-03T04:08:21;11.00;66.91
9861;DHT22;4969;52.304;4.968;2023-04-03T04:10:48;11.52;69.32
9861;DHT22;4969;52.304;4.968;2023-04-03T04:13:14;11.43;64.83
9861;DHT22;4969;52.304;4.968;2023-04-03T04:15:41;11.32;66.48
9861;DHT22;4969;52.304;4.968;2023-04-03T04:18:08;12.62;59.69
9861;DHT22;4969;52.304;4.968;2023-04-03T04:20:34;12.79;64.57
9861;DHT22;4969;52.304;4.968;2023-04-03T04:23:01;12.13;62.51
9861;DHT22;4969;52.304;4.968;2023-04-03T04:25:29;11.44;64.69
9861;DHT22;4969;52.304;4.968;2023-04-03T04:27:55;11.86;67.07
9861;DHT22;4969;52.304;4.968;2023-04-03T04:30:22;12.62;68.46
9861;DHT22;4969;52.304;4.968;2023-04-03T04:32:48;12.75;68.42
9861;DHT22;4969;52.304;4.968;2023-04-03T04:35:15;12.44;61.99
9861;DHT22;4969;52.304;4.968;2023-04-03T04:37:42;12.34;62.24
9861;DHT22;4969;52.304;4.968;2023-04-03T04:40:09;9.95;56.14
9861;DHT22;4969;52.304;4.968;2023-04-03T04:42:37;8.75;64.27
9861;DHT22;4969;52.304;4.968;2023-04-03T04:45:04;9.96;71.57
9861;DHT22;4969;52.304;4.968;2023-04-03T04:47:31;8.16;62.55
9861;DHT22;4969;52.304;4.968;2023-04-03T04:49:57;10.67;73.88
9861;DHT22;4969;52.304;4.968;2023-04-03T04:52:24;10.91;65.25
9861;DHT22;4969;52.304;4.968;2023-04-03T04:54:51;10.05;69.31
9861;DHT22;4969;52.304;4.968;2023-04-03T04:57:17;10.48;65.61
9861;DHT22;4969;52.304;4.968;2023-04-03T04:59:45;9.52;65.61
9861;DHT22;4969;52.304;4.968;2023-04-03T05:02:12;9.83;64.13
9861;DHT22;4969;52.304;4.968;2023-04-03T05:04:38;8.47;58.51
9861;DHT22;4969;52.304;4.968;2023-04-03T05:07:05;8.84;60.13
9861;DHT22;4969;52.304;4.968;2023-04-03T05:09:31;7.61;69.26
9861;DHT22;4969;52.304;4.968;2023-04-03T05:11:58;7.22;65.88
9861;DHT22;4969;52.304;4.968;2023-04-03T05:14:25;8.65;70.52
9861;DHT22;4969;52.304;4.968;2023-04-03T05:16:52;8.51;63.73
9861;DHT22;4969;52.304;4.968;2023-04-03T05:19:19;9.10;69.84
9861;DHT22;4969;52.304;4.968;2023-04-03T05:21:46;7.96;59.96
9861;DHT22;4969;52.304;4.968;2023-04-03T05:24:13;7.15;69.42
9861;DHT22;4969;52.304;4.968;2023-04-03T05:26:40;7.62;68.07
9861;DHT22;4969;52.304;4.968;2023-04-03T05:29:06;9.19;73.15
9861;DHT22;4969;52.304;4.968;2023-04-03T05:31:33;9.68;72.04
9861;DHT22;4969;52.304;4.968;2023-04-03T05:34:02;8.95;65.88
9861;DHT22;4969;52.304;4.968;2023-04-03T05:36:28;9.24;66.70
9861;DHT22;4969;52.304;4.968;2023-04-03T05:38:55;7.39;60.98
9861;DHT22;4969;52.304;4.968;2023-04-03T05:41:22;7.50;70.16
9861;DHT22;4969;52.304;4.968;2023-04-03T05:43:49;10.27;74.44
9861;DHT22;4969;52.304;4.968;2023-04-03T05:46:17;9.19;65.54
9861;DHT22;4969;52.304;4.968;2023-04-03T05:48:44;9.75;67.73
9861;DHT22;4969;52.304;4.968;2023-04-03T05:51:15;8.09;66.45
9861;DHT22;4969;52.304;4.968;2023-04-03T05:53:43;10.78;66.41
9861;DHT22;4969;52.304;4.968;2023-04-03T05:56:09;8.92;59.09
9861;DHT22;4969;52.304;4.968;2023-04-03T05:58:36;10.81;71.61
9861;DHT22;4969;52.304;4.968;2023-04-03T06:01:03;9.83;63.02
9861;DHT22;4969;52.304;4.968;2023-04-03T06:03:30;8.16;58.92
9861;DHT22;4969;52.304;4.968;2023-04-03T06:05:57;8.85;74.53
9861;DHT22;4969;52.304;4.968;2023-04-03T06:08:25;8.40;64.40
9861;DHT22;4969;52.304;4.968;2023-04-03T06:10:51;9.30;73.92
9861;DHT22;4969;52.304;4.968;2023-04-03T06:13:18;9.82;67.38
9861;DHT22;4969;52.304;4.968;2023-04-03T06:15:44;10.78;74.04
9861;DHT22;4969;52.304;4.968;2023-04-03T06:18:11;10.19;74.25
9861;DHT22;4969;52.304;4.968;2023-04-03T06:20:38;10.47;62.57
9861;DHT22;4969;52.304;4.968;2023-04-03T06:23:05;11.58;70.59
9861;DHT22;4969;52.304;4.968;2023-04-03T06:25:32;9.50;57.84
9861;DHT22;4969;52.304;4.968;2023-04-03T06:27:59;10.30;74.23
9861;DHT22;4969;52.304;4.968;2023-04-03T06:30:26;8.81;63.65
9861;DHT22;4969;52.304;4.968;2023-04-03T06:32:52;10.17;76.14
9861;DHT22;4969;52.304;4.968;2023-04-03T06:35:19;9.73;58.04
9861;DHT22;4969;52.304;4.968;2023-04-03T06:37:46;8.93;66.83
9861;DHT22;4969;52.304;4.968;2023-04-03T06:40:18;12.23;71.27
9861;DHT22;4969;52.304;4.968;2023-04-03T06:42:48;12.58;62.23
9861;DHT22;4969;52.304;4.968;2023-04-03T06:45:15;12.09;70.21
9861;DHT22;4969;52.304;4.968;2023-04-03T06:47:41;11.90;55.18
9861;DHT22;4969;52.304;4.968;2023-04-03T06:50:09;10.92;60.59
9861;DHT22;4969;52.304;4.968;2023-04-03T06:52:36;10.02;69.02
9861;DHT22;4969;52.304;4.968;2023-04-03T06:55:05;8.26;58.32
9861;DHT22;4969;52.304;4.968;2023-04-03T06:57:32;9.55;67.82
9861;DHT22;4969;52.304;4.968;2023-04-03T07:00:00;9.13;61.20
9861;DHT22;4969;52.304;4.968;2023-04-03T07:02:26;8.23;60.02
9861;DHT22;4969;52.304;4.968;2023-04-03T07:04:53;9.92;72.90
9861;DHT22;4969;52.304;4.968;2023-04-03T07:07:20;12.67;69.62
9861;DHT22;4969;52.304;4.968;2023-04-03T07:09:47;11.51;66.82
9861;DHT22;4969;52.304;4.968;2023-04-03T07:12:15;10.26;57.34
9861;DHT22;4969;52.304;4.968;2023-04-03T07:14:41;11.23;64.23
9861;DHT22;4969;52.304;4.968;2023-04-03T07:17:10;10.81;58.74
9861;DHT22;4969;52.304;4.968;2023-04-03T07:19:36;10.69;68.15
9861;DHT22;4969;52.304;4.968;2023-04-03T07:22:03;11.10;55.50
9861;DHT22;4969;52.304;4.968;2023-04-03T07:24:30;9.92;68.97
9861;DHT22;4969;52.304;4.968;2023-04-03T07:26:56;10.78;66.21
9861;DHT22;4969;52.304;4.968;2023-04-03T07:29:23;11.27;67.48
9861;DHT22;4969;52.304;4.968;2023-04-03T07:31:49;12.61;56.98
9861;DHT22;4969;52.304;4.968;2023-04-03T07:34:17;11.59;55.54
9861;DHT22;4969;52.304;4.968;2023-04-03T07:36:44;10.55;54.45
9861;DHT22;4969;52.304;4.968;2023-04-03T07:39:10;9.88;71.67
9861;DHT22;4969;52.304;4.968;2023-04-03T07:41:37;10.76;66.53
9861;DHT22;4969;52.304;4.968;2023-04-03T07:44:04;12.55;64.60
9861;DHT22;4969;52.304;4.968;2023-04-03T07:46:31;10.36;55.40
9861;DHT22;4969;52.304;4.968;2023-04-03T07:48:57;9.36;64.04
9861;DHT22;4969;52.304;4.968;2023-04-03T07:51:25;12.20;66.05
9861;DHT22;4969;52.304;4.968;2023-04-03T07:53:53;14.17;61.39
9861;DHT22;4969;52.304;4.968;2023-04-03T07:56:20;12.55;57.12
9861;DHT22;4969;52.304;4.968;2023-04-03T07:58:46;12.07;52.14
9861;DHT22;4969;52.304;4.968;2023-04-03T08:01:13;10.10;60.36
9861;DHT22;4969;52.304;4.968;2023-04-03T08:03:40;8.91;56.70
9861;DHT22;4969;52.304;4.968;2023-04-03T08:06:08;8.96;66.59
9861;DHT22;4969;52.304;4.968;2023-04-03T08:08:36;11.30;63.94
9861;DHT22;4969;52.304;4.968;2023-04-03T08:11:03;12.04;69.38
9861;DHT22;4969;52.304;4.968;2023-04-03T08:13:31;11.69;65.92
9861;DHT22;4969;52.304;4.968;2023-04-03T08:16:06;10.23;62.71
9861;DHT22;4969;52.304;4.968;2023-04-03T08:18:32;9.85;55.17
9861;DHT22;4969;52.304;4.968;2023-04-03T08:20:59;10.97;58.53
9861;DHT22;4969;52.304;4.968;2023-04-03T08:23:26;10.88;49.89
9861;DHT22;4969;52.304;4.968;2023-04-03T08:25:54;11.97;65.28
9861;DHT22;4969;52.304;4.968;2023-04-03T08:28:20;13.17;63.89
9861;DHT22;4969;52.304;4.968;2023-04-03T08:30:47;10.61;48.13
9861;DHT22;4969;52.304;4.968;2023-04-03T08:33:13;8.37;52.77
9861;DHT22;4969;52.304;4.968;2023-04-03T08:35:41;8.81;62.77
9861;DHT22;4969;52.304;4.968;2023-04-03T08:38:08;8.29;55.93
9861;DHT22;4969;52.304;4.968;2023-04-03T08:40:35;8.89;61.62
9861;DHT22;4969;52.304;4.968;2023-04-03T08:43:21;10.31;71.62
9861;DHT22;4969;52.304;4.968;2023-04-03T08:45:55;10.40;53.49
9861;DHT22;4969;52.304;4.968;2023-04-03T08:48:24;11.69;57.99
9861;DHT22;4969;52.304;4.968;2023-04-03T08:50:55;12.02;49.83
9861;DHT22;4969;52.304;4.968;2023-04-03T08:53:25;9.41;49.83
9861;DHT22;4969;52.304;4.968;2023-04-03T08:55:54;10.17;55.21
9861;DHT22;4969;52.304;4.968;2023-04-03T08:58:26;10.89;62.12
9861;DHT22;4969;52.304;4.968;2023-04-03T09:00:57;11.61;56.55
9861;DHT22;4969;52.304;4.968;2023-04-03T09:03:25;10.49;49.10
9861;DHT22;4969;52.304;4.968;2023-04-03T09:05:54;10.33;44.28
9861;DHT22;4969;52.304;4.968;2023-04-03T09:08:23;12.85;63.42
9861;DHT22;4969;52.304;4.968;2023-04-03T09:11:00;13.35;59.22
9861;DHT22;4969;52.304;4.968;2023-04-03T09:13:35;11.71;41.95
9861;DHT22;4969;52.304;4.968;2023-04-03T09:16:15;10.63;42.74
9861;DHT22;4969;52.304;4.968;2023-04-03T09:18:48;12.33;63.05
9861;DHT22;4969;52.304;4.968;2023-04-03T09:21:21;14.06;59.19
9861;DHT22;4969;52.304;4.968;2023-04-03T09:23:50;12.26;49.51
9861;DHT22;4969;52.304;4.968;2023-04-03T09:26:21;11.54;55.28
9861;DHT22;4969;52.304;4.968;2023-04-03T09:28:52;12.09;68.22
9861;DHT22;4969;52.304;4.968;2023-04-03T09:31:23;12.31;39.93
9861;DHT22;4969;52.304;4.968;2023-04-03T09:33:53;14.03;58.90
9861;DHT22;4969;52.304;4.968;2023-04-03T09:36:37;14.60;41.49
9861;DHT22;4969;52.304;4.968;2023-04-03T09:39:07;14.57;58.98
9861;DHT22;4969;52.304;4.968;2023-04-03T09:41:36;14.55;43.51
9861;DHT22;4969;52.304;4.968;2023-04-03T09:44:20;10.97;40.88
9861;DHT22;4969;52.304;4.968;2023-04-03T09:46:46;11.64;43.73
9861;DHT22;4969;52.304;4.968;2023-04-03T09:49:13;13.30;47.97
9861;DHT22;4969;52.304;4.968;2023-04-03T09:51:40;12.58;48.18
9861;DHT22;4969;52.304;4.968;2023-04-03T09:54:32;14.45;48.78
9861;DHT22;4969;52.304;4.968;2023-04-03T09:57:02;14.54;57.45
9861;DHT22;4969;52.304;4.968;2023-04-03T09:59:32;15.53;48.03
9861;DHT22;4969;52.304;4.968;2023-04-03T10:02:00;13.07;38.53
9861;DHT22;4969;52.304;4.968;2023-04-03T10:04:38;13.52;42.65
9861;DHT22;4969;52.304;4.968;2023-04-03T10:07:29;14.26;52.46
9861;DHT22;4969;52.304;4.968;2023-04-03T10:09:57;15.03;53.55
9861;DHT22;4969;52.304;4.968;2023-04-03T10:12:24;15.06;41.03
9861;DHT22;4969;52.304;4.968;2023-04-03T10:14:56;14.60;56.36
9861;DHT22;4969;52.304;4.968;2023-04-03T10:17:31;15.13;38.36
9861;DHT22;4969;52.304;4.968;2023-04-03T10:20:08;13.92;50.96
9861;DHT22;4969;52.304;4.968;2023-04-03T10:22:41;15.03;48.99
9861;DHT22;4969;52.304;4.968;2023-04-03T10:25:19;15.79;51.67
9861;DHT22;4969;52.304;4.968;2023-04-03T10:27:55;15.10;51.29
9861;DHT22;4969;52.304;4.968;2023-04-03T10:30:42;15.44;44.08
9861;DHT22;4969;52.304;4.968;2023-04-03T10:33:21;15.18;36.14
9861;DHT22;4969;52.304;4.968;2023-04-03T10:35:57;14.50;39.34
9861;DHT22;4969;52.304;4.968;2023-04-03T10:38:33;15.34;51.10
9861;DHT22;4969;52.304;4.968;2023-04-03T10:41:07;15.18;53.24
9861;DHT22;4969;52.304;4.968;2023-04-03T10:43:43;15.71;37.92
9861;DHT22;4969;52.304;4.968;2023-04-03T10:46:14;15.06;52.99
9861;DHT22;4969;52.304;4.968;2023-04-03T10:49:01;15.10;40.06
9861;DHT22;4969;52.304;4.968;2023-04-03T10:51:29;14.67;55.74
9861;DHT22;4969;52.304;4.968;2023-04-03T10:54:04;14.17;53.85
9861;DHT22;4969;52.304;4.968;2023-04-03T10:56:36;13.65;57.44
9861;DHT22;4969;52.304;4.968;2023-04-03T10:59:15;15.02;45.52
9861;DHT22;4969;52.304;4.968;2023-04-03T11:01:46;15.44;40.97
9861;DHT22;4969;52.304;4.968;2023-04-03T11:04:16;14.67;36.59
9861;DHT22;4969;52.304;4.968;2023-04-03T11:06:47;15.54;44.20
9861;DHT22;4969;52.304;4.968;2023-04-03T11:09:21;13.12;34.91
9861;DHT22;4969;52.304;4.968;2023-04-03T11:11:51;12.97;33.29
9861;DHT22;4969;52.304;4.968;2023-04-03T11:14:25;14.40;40.41
9861;DHT22;4969;52.304;4.968;2023-04-03T11:17:01;14.71;45.13
9861;DHT22;4969;52.304;4.968;2023-04-03T11:19:34;14.48;52.34
9861;DHT22;4969;52.304;4.968;2023-04-03T11:22:09;13.28;40.30
9861;DHT22;4969;52.304;4.968;2023-04-03T11:24:39;13.48;44.57
9861;DHT22;4969;52.304;4.968;2023-04-03T11:27:11;13.41;41.75
9861;DHT22;4969;52.304;4.968;2023-04-03T11:29:43;12.73;32.57
9861;DHT22;4969;52.304;4.968;2023-04-03T11:32:26;15.06;39.53
9861;DHT22;4969;52.304;4.968;2023-04-03T11:34:56;15.93;50.65
9861;DHT22;4969;52.304;4.968;2023-04-03T11:37:29;13.88;51.14
9861;DHT22;4969;52.304;4.968;2023-04-03T11:40:00;15.24;48.08
9861;DHT22;4969;52.304;4.968;2023-04-03T11:42:34;13.86;28.18
9861;DHT22;4969;52.304;4.968;2023-04-03T11:45:36;12.57;34.89
9861;DHT22;4969;52.304;4.968;2023-04-03T11:48:09;13.02;44.95
9861;DHT22;4969;52.304;4.968;2023-04-03T11:50:55;12.30;36.50
9861;DHT22;4969;52.304;4.968;2023-04-03T11:53:33;13.31;34.76
9861;DHT22;4969;52.304;4.968;2023-04-03T11:56:03;13.63;45.80
9861;DHT22;4969;52.304;4.968;2023-04-03T11:58:31;14.58;55.69
9861;DHT22;4969;52.304;4.968;2023-04-03T12:01:01;13.61;52.99
9861;DHT22;4969;52.304;4.968;2023-04-03T12:12:33;14.07;42.77
9861;DHT22;4969;52.304;4.968;2023-04-03T12:15:17;14.62;52.62
9861;DHT22;4969;52.304;4.968;2023-04-03T12:17:45;14.65;32.36
9861;DHT22;4969;52.304;4.968;2023-04-03T12:23:24;12.68;49.03
9861;DHT22;4969;52.304;4.968;2023-04-03T12:25:59;12.55;45.84
9861;DHT22;4969;52.304;4.968;2023-04-03T12:28:26;12.33;35.22
9861;DHT22;4969;52.304;4.968;2023-04-03T12:30:53;13.71;45.60
9861;DHT22;4969;52.304;4.968;2023-04-03T12:33:30;15.31;55.40
9861;DHT22;4969;52.304;4.968;2023-04-03T12:36:07;15.82;54.32
9861;DHT22;4969;52.304;4.968;2023-04-03T12:38:45;16.16;50.60
9861;DHT22;4969;52.304;4.968;2023-04-03T12:41:24;16.19;33.59
9861;DHT22;4969;52.304;4.968;2023-04-03T12:44:06;15.94;35.83
9861;DHT22;4969;52.304;4.968;2023-04-03T12:46:39;16.66;51.93
9861;DHT22;4969;52.304;4.968;2023-04-03T12:49:22;16.26;33.59
9861;DHT22;4969;52.304;4.968;2023-04-03T12:51:51;16.42;45.90
9861;DHT22;4969;52.304;4.968;2023-04-03T12:54:20;13.86;34.29
9861;DHT22;4969;52.304;4.968;2023-04-03T12:56:49;13.99;58.20
9861;DHT22;4969;52.304;4.968;2023-04-03T12:59:18;15.00;62.37
9861;DHT22;4969;52.304;4.968;2023-04-03T13:01:53;15.45;60.37
9861;DHT22;4969;52.304;4.968;2023-04-03T13:04:20;14.42;31.55
9861;DHT22;4969;52.304;4.968;2023-04-03T13:06:47;14.93;47.72
9861;DHT22;4969;52.304;4.968;2023-04-03T13:09:20;14.23;56.82
9861;DHT22;4969;52.304;4.968;2023-04-03T13:11:51;14.65;43.14
9861;DHT22;4969;52.304;4.968;2023-04-03T13:14:20;15.27;35.25
9861;DHT22;4969;52.304;4.968;2023-04-03T13:16:54;12.96;33.29
9861;DHT22;4969;52.304;4.968;2023-04-03T13:19:22;12.67;41.67
9861;DHT22;4969;52.304;4.968;2023-04-03T13:21:51;13.62;47.01
9861;DHT22;4969;52.304;4.968;2023-04-03T13:24:19;12.93;40.56
9861;DHT22;4969;52.304;4.968;2023-04-03T13:26:46;12.34;33.51
9861;DHT22;4969;52.304;4.968;2023-04-03T13:29:22;13.52;42.86
9861;DHT22;4969;52.304;4.968;2023-04-03T13:31:52;13.41;46.37
9861;DHT22;4969;52.304;4.968;2023-04-03T13:34:20;12.44;38.72
9861;DHT22;4969;52.304;4.968;2023-04-03T13:36:55;13.75;50.89
9861;DHT22;4969;52.304;4.968;2023-04-03T13:39:24;13.42;46.23
9861;DHT22;4969;52.304;4.968;2023-04-03T13:41:52;14.27;52.11
9861;DHT22;4969;52.304;4.968;2023-04-03T13:44:30;15.17;49.96
9861;DHT22;4969;52.304;4.968;2023-04-03T13:46:58;16.12;55.90
9861;DHT22;4969;52.304;4.968;2023-04-03T13:49:31;15.45;54.49
9861;DHT22;4969;52.304;4.968;2023-04-03T13:51:58;16.76;43.46
9861;DHT22;4969;52.304;4.968;2023-04-03T13:54:30;15.43;32.41
9861;DHT22;4969;52.304;4.968;2023-04-03T13:56:58;14.99;47.55
9861;DHT22;4969;52.304;4.968;2023-04-03T13:59:30;14.96;34.80
9861;DHT22;4969;52.304;4.968;2023-04-03T14:02:14;14.67;47.60
9861;DHT22;4969;52.304;4.968;2023-04-03T14:04:48;15.14;36.96
9861;DHT22;4969;52.304;4.968;2023-04-03T14:07:16;14.07;42.21
9861;DHT22;4969;52.304;4.968;2023-04-03T14:09:45;13.57;46.51
9861;DHT22;4969;52.304;4.968;2023-04-03T14:12:16;12.03;35.96
9861;DHT22;4969;52.304;4.968;2023-04-03T14:14:45;12.64;60.10
9861;DHT22;4969;52.304;4.968;2023-04-03T14:17:15;12.78;31.32
9861;DHT22;4969;52.304;4.968;2023-04-03T14:19:42;14.52;56.75
9861;DHT22;4969;52.304;4.968;2023-04-03T14:22:15;14.54;54.67
9861;DHT22;4969;52.304;4.968;2023-04-03T14:24:42;13.61;31.38
9861;DHT22;4969;52.304;4.968;2023-04-03T14:27:16;12.54;54.17
9861;DHT22;4969;52.304;4.968;2023-04-03T14:29:45;12.51;45.93
9861;DHT22;4969;52.304;4.968;2023-04-03T14:32:13;13.27;37.80
9861;DHT22;4969;52.304;4.968;2023-04-03T14:34:42;12.88;33.51
9861;DHT22;4969;52.304;4.968;2023-04-03T14:37:11;14.44;41.90
9861;DHT22;4969;52.304;4.968;2023-04-03T14:39:38;14.13;53.83
9861;DHT22;4969;52.304;4.968;2023-04-03T14:42:05;12.72;33.52
9861;DHT22;4969;52.304;4.968;2023-04-03T14:44:32;11.89;34.07
9861;DHT22;4969;52.304;4.968;2023-04-03T14:46:59;11.64;34.17
9861;DHT22;4969;52.304;4.968;2023-04-03T14:49:29;11.92;39.34
9861;DHT22;4969;52.304;4.968;2023-04-03T14:51:56;11.46;35.13
9861;DHT22;4969;52.304;4.968;2023-04-03T14:54:24;11.69;37.96
9861;DHT22;4969;52.304;4.968;2023-04-03T14:56:53;11.89;33.86
9861;DHT22;4969;52.304;4.968;2023-04-03T14:59:21;11.30;42.57
9861;DHT22;4969;52.304;4.968;2023-04-03T15:01:48;13.23;44.60
9861;DHT22;4969;52.304;4.968;2023-04-03T15:04:18;13.30;34.62
9861;DHT22;4969;52.304;4.968;2023-04-03T15:06:45;13.17;44.50
9861;DHT22;4969;52.304;4.968;2023-04-03T15:09:19;14.37;35.79
9861;DHT22;4969;52.304;4.968;2023-04-03T15:11:46;13.40;42.91
9861;DHT22;4969;52.304;4.968;2023-04-03T15:14:13;14.03;42.42
9861;DHT22;4969;52.304;4.968;2023-04-03T15:16:40;14.27;59.02
9861;DHT22;4969;52.304;4.968;2023-04-03T15:19:06;14.24;44.93
9861;DHT22;4969;52.304;4.968;2023-04-03T15:21:34;13.10;33.87
9861;DHT22;4969;52.304;4.968;2023-04-03T15:24:01;13.06;38.80
9861;DHT22;4969;52.304;4.968;2023-04-03T15:26:28;13.58;45.73
9861;DHT22;4969;52.304;4.968;2023-04-03T15:28:54;13.51;60.19
9861;DHT22;4969;52.304;4.968;2023-04-03T15:31:21;13.69;57.03
9861;DHT22;4969;52.304;4.968;2023-04-03T15:33:48;14.71;49.25
9861;DHT22;4969;52.304;4.968;2023-04-03T15:36:14;13.89;46.58
9861;DHT22;4969;52.304;4.968;2023-04-03T15:38:42;15.10;52.06
9861;DHT22;4969;52.304;4.968;2023-04-03T15:41:09;14.12;35.07
9861;DHT22;4969;52.304;4.968;2023-04-03T15:43:35;13.72;36.57
9861;DHT22;4969;52.304;4.968;2023-04-03T15:46:02;13.88;42.90
9861;DHT22;4969;52.304;4.968;2023-04-03T15:48:29;13.42;54.24
9861;DHT22;4969;52.304;4.968;2023-04-03T15:50:56;11.87;34.42
9861;DHT22;4969;52.304;4.968;2023-04-03T15:53:22;11.61;46.99
9861;DHT22;4969;52.304;4.968;2023-04-03T15:55:50;12.45;49.10
9861;DHT22;4969;52.304;4.968;2023-04-03T15:58:17;13.05;42.68
9861;DHT22;4969;52.304;4.968;2023-04-03T16:00:43;14.58;56.60
9861;DHT22;4969;52.304;4.968;2023-04-03T16:03:12;12.69;37.29
9861;DHT22;4969;52.304;4.968;2023-04-03T16:05:40;12.44;38.13
9861;DHT22;4969;52.304;4.968;2023-04-03T16:08:08;13.82;42.29
9861;DHT22;4969;52.304;4.968;2023-04-03T16:10:35;15.17;48.22
9861;DHT22;4969;52.304;4.968;2023-04-03T16:13:04;14.55;54.31
9861;DHT22;4969;52.304;4.968;2023-04-03T16:15:31;14.13;34.90
9861;DHT22;4969;52.304;4.968;2023-04-03T16:18:00;13.31;50.57
9861;DHT22;4969;52.304;4.968;2023-04-03T16:20:26;13.93;53.17
9861;DHT22;4969;52.304;4.968;2023-04-03T16:22:53;13.44;49.04
9861;DHT22;4969;52.304;4.968;2023-04-03T16:25:22;13.99;38.50
9861;DHT22;4969;52.304;4.968;2023-04-03T16:27:48;15.28;54.93
9861;DHT22;4969;52.304;4.968;2023-04-03T16:30:17;14.18;31.73
9861;DHT22;4969;52.304;4.968;2023-04-03T16:32:43;13.90;49.58